createdAt,value
2024-02-07T00:02:04.021Z,8.67
2024-02-07T00:04:32.824Z,8.68
2024-02-07T00:06:59.874Z,8.68
2024-02-07T00:09:26.945Z,8.70
2024-02-07T00:11:53.695Z,8.70
2024-02-07T00:14:20.741Z,8.68
2024-02-07T00:16:47.598Z,8.67
2024-02-07T00:19:14.803Z,8.66
2024-02-07T00:21:42.179Z,8.63
2024-02-07T00:24:09.255Z,8.60
2024-02-07T00:26:37.218Z,8.59
2024-02-07T00:29:04.321Z,8.58
2024-02-07T00:31:31.201Z,8.57
2024-02-07T00:33:58.366Z,8.57
2024-02-07T00:36:25.227Z,8.55
2024-02-07T00:38:58.447Z,8.51
2024-02-07T00:41:26.953Z,8.53
2024-02-07T00:43:54.644Z,8.52
2024-02-07T00:46:21.850Z,8.52
2024-02-07T00:48:49.514Z,8.48
2024-02-07T00:51:16.368Z,8.48
2024-02-07T00:53:43.587Z,8.47
2024-02-07T00:56:10.481Z,8.47
2024-02-07T00:58:37.520Z,8.47
2024-02-07T01:01:07.648Z,8.46
2024-02-07T01:03:34.804Z,8.47
2024-02-07T01:06:02.086Z,8.46
2024-02-07T01:08:29.478Z,8.47
2024-02-07T01:10:56.494Z,8.46
2024-02-07T01:13:23.629Z,8.50
2024-02-07T01:15:50.550Z,8.49
2024-02-07T01:18:17.879Z,8.47
2024-02-07T01:20:44.854Z,8.46
2024-02-07T01:23:12.283Z,8.46
2024-02-07T01:25:39.206Z,8.46
2024-02-07T01:28:06.735Z,8.48
2024-02-07T01:30:33.547Z,8.50
2024-02-07T01:33:00.770Z,8.48
2024-02-07T01:35:28.311Z,8.46
2024-02-07T01:37:55.462Z,8.46
2024-02-07T01:40:24.308Z,8.43
2024-02-07T01:42:51.445Z,8.47
2024-02-07T01:45:34.459Z,8.43
2024-02-07T01:48:02.523Z,8.45
2024-02-07T01:50:30.830Z,8.43
2024-02-07T01:53:04.510Z,8.43
2024-02-07T01:55:32.972Z,8.44
2024-02-07T01:58:01.791Z,8.43
2024-02-07T02:00:29.008Z,8.41
2024-02-07T02:02:56.089Z,8.39
2024-02-07T02:05:22.926Z,8.36
2024-02-07T02:07:50.179Z,8.38
2024-02-07T02:10:17.511Z,8.37
2024-02-07T02:12:45.196Z,8.37
2024-02-07T02:15:12.267Z,8.35
2024-02-07T02:17:39.444Z,8.32
2024-02-07T02:20:07.687Z,8.28
2024-02-07T02:22:57.987Z,8.30
2024-02-07T02:25:43.313Z,8.32
2024-02-07T02:28:19.710Z,8.29
2024-02-07T02:30:52.275Z,8.28
2024-02-07T02:33:22.551Z,8.24
2024-02-07T02:35:51.384Z,8.24
2024-02-07T02:38:19.964Z,8.26
2024-02-07T02:40:48.532Z,8.25
2024-02-07T02:43:15.925Z,8.25
2024-02-07T02:45:42.831Z,8.26
2024-02-07T02:48:12.629Z,8.25
2024-02-07T02:50:40.898Z,8.26
2024-02-07T02:53:08.124Z,8.27
2024-02-07T02:55:35.417Z,8.24
2024-02-07T02:58:02.626Z,8.23
2024-02-07T03:00:29.604Z,8.25
2024-02-07T03:02:57.818Z,8.26
2024-02-07T03:05:44.017Z,8.26
2024-02-07T03:08:12.196Z,8.27
2024-02-07T03:10:42.181Z,8.28
2024-02-07T03:13:13.797Z,8.28
2024-02-07T03:15:40.818Z,8.28
2024-02-07T03:18:10.624Z,8.30
2024-02-07T03:20:37.534Z,8.30
2024-02-07T03:23:05.609Z,8.28
2024-02-07T03:25:34.852Z,8.29
2024-02-07T03:28:03.445Z,8.29
2024-02-07T03:30:30.232Z,8.28
2024-02-07T03:32:57.572Z,8.26
2024-02-07T03:35:24.534Z,8.28
2024-02-07T03:37:51.806Z,8.28
2024-02-07T03:40:20.184Z,8.28
2024-02-07T03:42:47.471Z,8.30
2024-02-07T03:45:17.622Z,8.26
2024-02-07T03:47:45.457Z,8.24
2024-02-07T03:50:13.086Z,8.25
2024-02-07T03:52:40.899Z,8.20
2024-02-07T03:55:08.558Z,8.19
2024-02-07T03:57:37.051Z,8.18
2024-02-07T04:00:11.183Z,8.16
2024-02-07T04:02:38.737Z,8.15
2024-02-07T04:05:06.947Z,8.12
2024-02-07T04:07:34.489Z,8.12
2024-02-07T04:10:01.500Z,8.12
2024-02-07T04:12:28.595Z,8.10
2024-02-07T04:14:55.277Z,8.11
2024-02-07T04:17:40.950Z,8.09
2024-02-07T04:20:26.210Z,8.09
2024-02-07T04:23:11.712Z,8.06
2024-02-07T04:25:58.621Z,8.04
2024-02-07T04:28:44.141Z,8.02
2024-02-07T04:31:29.514Z,8.01
2024-02-07T04:34:15.184Z,8.00
2024-02-07T04:37:00.596Z,7.97
2024-02-07T04:39:46.290Z,7.97
2024-02-07T04:42:31.639Z,7.96
2024-02-07T04:45:17.216Z,7.95
2024-02-07T04:48:02.602Z,7.92
2024-02-07T04:50:48.481Z,7.92
2024-02-07T04:53:33.787Z,7.94
2024-02-07T04:56:19.142Z,7.96
2024-02-07T04:59:04.446Z,7.96
2024-02-07T05:01:49.877Z,7.97
2024-02-07T05:04:35.352Z,7.94
2024-02-07T05:07:20.966Z,7.95
2024-02-07T05:10:06.286Z,7.97
2024-02-07T05:12:51.756Z,7.97
2024-02-07T05:15:18.462Z,7.96
2024-02-07T05:17:45.497Z,7.97
2024-02-07T05:20:13.249Z,7.96
2024-02-07T05:22:40.735Z,7.95
2024-02-07T05:25:07.945Z,7.93
2024-02-07T05:27:35.048Z,7.92
2024-02-07T05:30:02.805Z,7.92
2024-02-07T05:32:29.931Z,7.91
2024-02-07T05:34:56.930Z,7.86
2024-02-07T05:37:25.100Z,7.86
2024-02-07T05:39:51.964Z,7.88
2024-02-07T05:42:19.109Z,7.91
2024-02-07T05:44:47.958Z,7.92
2024-02-07T05:47:15.048Z,7.93
2024-02-07T05:49:44.850Z,7.93
2024-02-07T05:52:12.431Z,7.96
2024-02-07T05:54:39.175Z,7.98
2024-02-07T05:57:06.293Z,7.99
2024-02-07T05:59:33.102Z,8.02
2024-02-07T06:02:00.290Z,8.06
2024-02-07T06:04:27.373Z,8.08
2024-02-07T06:06:55.999Z,8.08
2024-02-07T06:09:22.772Z,8.07
2024-02-07T06:11:52.844Z,8.10
2024-02-07T06:14:19.714Z,8.09
2024-02-07T06:16:46.873Z,8.08
2024-02-07T06:19:14.115Z,8.08
2024-02-07T06:21:41.503Z,8.15
2024-02-07T06:24:08.301Z,8.14
2024-02-07T06:26:35.416Z,8.16
2024-02-07T06:29:02.243Z,8.19
2024-02-07T06:31:29.340Z,8.20
2024-02-07T06:33:56.439Z,8.23
2024-02-07T06:36:23.537Z,8.24
2024-02-07T06:38:50.343Z,8.25
2024-02-07T06:41:17.397Z,8.23
2024-02-07T06:43:44.246Z,8.29
2024-02-07T06:46:11.445Z,8.32
2024-02-07T06:48:38.313Z,8.36
2024-02-07T06:51:05.594Z,8.40
2024-02-07T06:53:32.434Z,8.39
2024-02-07T06:56:00.497Z,8.40
2024-02-07T06:58:31.349Z,8.39
2024-02-07T07:01:00.233Z,8.41
2024-02-07T07:03:27.702Z,8.43
2024-02-07T07:05:55.083Z,8.46
2024-02-07T07:08:22.371Z,8.48
2024-02-07T07:10:49.170Z,8.48
2024-02-07T07:13:16.525Z,8.53
2024-02-07T07:15:43.369Z,8.54
2024-02-07T07:18:10.536Z,8.56
2024-02-07T07:20:37.357Z,8.56
2024-02-07T07:23:12.675Z,8.60
2024-02-07T07:25:43.527Z,8.58
2024-02-07T07:28:10.823Z,8.61
2024-02-07T07:30:39.555Z,8.60
2024-02-07T07:33:06.868Z,8.62
2024-02-07T07:35:33.911Z,8.62
2024-02-07T07:38:05.644Z,8.64
2024-02-07T07:40:33.449Z,8.65
2024-02-07T07:43:00.788Z,8.67
2024-02-07T07:45:27.896Z,8.70
2024-02-07T07:47:57.365Z,8.72
2024-02-07T07:50:24.312Z,8.73
2024-02-07T07:52:51.366Z,8.75
2024-02-07T07:55:18.251Z,8.77
2024-02-07T07:57:48.390Z,8.79
2024-02-07T08:00:15.637Z,8.78
2024-02-07T08:02:42.704Z,8.77
2024-02-07T08:05:09.929Z,8.80
2024-02-07T08:07:37.584Z,8.77
2024-02-07T08:10:07.098Z,8.79
2024-02-07T08:12:40.391Z,8.81
2024-02-07T08:15:08.041Z,8.83
2024-02-07T08:17:35.167Z,8.82
2024-02-07T08:20:02.171Z,8.84
2024-02-07T08:22:29.354Z,8.86
2024-02-07T08:24:56.320Z,8.91
2024-02-07T08:27:23.350Z,8.91
2024-02-07T08:29:50.095Z,8.90
2024-02-07T08:32:17.231Z,8.90
2024-02-07T08:34:44.154Z,8.85
2024-02-07T08:37:23.255Z,8.82
2024-02-07T08:39:50.413Z,8.87
2024-02-07T08:42:18.837Z,8.88
2024-02-07T08:44:45.840Z,8.91
2024-02-07T08:47:13.306Z,8.91
2024-02-07T08:49:41.914Z,8.92
2024-02-07T08:52:09.115Z,8.91
2024-02-07T08:54:35.931Z,8.88
2024-02-07T08:57:03.336Z,8.85
2024-02-07T08:59:30.390Z,8.86
2024-02-07T09:01:58.870Z,8.88
2024-02-07T09:04:25.791Z,8.91
2024-02-07T09:06:56.189Z,8.91
2024-02-07T09:09:23.021Z,8.88
2024-02-07T09:11:53.591Z,8.81
2024-02-07T09:14:20.446Z,8.70
2024-02-07T09:16:47.489Z,8.65
2024-02-07T09:19:15.199Z,8.64
2024-02-07T09:21:42.448Z,8.66
2024-02-07T09:24:12.576Z,8.69
2024-02-07T09:26:39.811Z,8.74
2024-02-07T09:29:06.972Z,8.81
2024-02-07T09:31:34.111Z,8.83
2024-02-07T09:34:04.167Z,8.87
2024-02-07T09:36:39.454Z,8.88
2024-02-07T09:39:06.515Z,8.88
2024-02-07T09:41:35.993Z,8.92
2024-02-07T09:44:04.813Z,8.91
2024-02-07T09:46:38.637Z,8.91
2024-02-07T09:49:08.493Z,8.89
2024-02-07T09:51:35.662Z,8.93
2024-02-07T09:54:03.293Z,8.91
2024-02-07T09:56:31.290Z,8.91
2024-02-07T09:58:58.620Z,8.91
2024-02-07T10:01:29.606Z,8.89
2024-02-07T10:04:02.227Z,8.86
2024-02-07T10:06:29.469Z,8.84
2024-02-07T10:08:56.543Z,8.77
2024-02-07T10:11:24.148Z,8.75
2024-02-07T10:13:50.923Z,8.74
2024-02-07T10:16:21.206Z,8.72
2024-02-07T10:19:08.286Z,8.69
2024-02-07T10:21:36.579Z,8.71
2024-02-07T10:24:07.287Z,8.69
2024-02-07T10:26:34.875Z,8.68
2024-02-07T10:29:04.833Z,8.71
2024-02-07T10:31:33.404Z,8.71
2024-02-07T10:34:00.792Z,8.74
2024-02-07T10:36:28.058Z,8.77
2024-02-07T10:39:03.743Z,8.81
2024-02-07T10:41:31.212Z,8.84
2024-02-07T10:44:12.350Z,8.87
2024-02-07T10:46:39.930Z,8.87
2024-02-07T10:49:10.696Z,8.89
2024-02-07T10:51:42.659Z,8.92
2024-02-07T10:54:10.476Z,8.95
2024-02-07T10:56:38.894Z,8.97
2024-02-07T10:59:06.605Z,9.00
2024-02-07T11:01:34.423Z,9.02
2024-02-07T11:04:02.567Z,9.04
2024-02-07T11:06:29.978Z,9.06
2024-02-07T11:08:58.785Z,9.07
2024-02-07T11:11:30.754Z,9.10
2024-02-07T11:13:59.895Z,9.12
2024-02-07T11:16:27.212Z,9.15
2024-02-07T11:18:54.869Z,9.16
2024-02-07T11:21:29.356Z,9.21
2024-02-07T11:23:58.698Z,9.21
2024-02-07T11:26:25.794Z,9.24
2024-02-07T11:28:53.054Z,9.29
2024-02-07T11:31:20.112Z,9.32
2024-02-07T11:38:10.929Z,9.35
2024-02-07T11:40:42.505Z,9.33
2024-02-07T11:43:22.147Z,9.35
2024-02-07T11:45:52.107Z,9.35
2024-02-07T11:48:26.183Z,9.33
2024-02-07T11:50:54.344Z,9.31
2024-02-07T11:53:30.262Z,9.31
2024-02-07T11:57:00.189Z,9.27
2024-02-07T11:59:45.495Z,9.27
2024-02-07T12:02:13.914Z,9.27
2024-02-07T12:04:41.893Z,9.25
2024-02-07T12:07:10.075Z,9.23
2024-02-07T12:09:38.336Z,9.26
2024-02-07T12:12:07.532Z,9.26
2024-02-07T12:14:34.269Z,9.29
2024-02-07T12:17:04.016Z,9.28
2024-02-07T12:19:31.005Z,9.28
2024-02-07T12:21:58.274Z,9.30
2024-02-07T12:24:25.048Z,9.31
2024-02-07T12:26:52.122Z,9.31
2024-02-07T12:29:22.141Z,9.30
2024-02-07T12:31:49.315Z,9.32
2024-02-07T12:34:26.305Z,9.32
2024-02-07T12:36:54.863Z,9.34
2024-02-07T12:39:22.784Z,9.38
2024-02-07T12:41:50.029Z,9.40
2024-02-07T12:44:16.885Z,9.42
2024-02-07T12:46:44.584Z,9.43
2024-02-07T12:49:11.885Z,9.45
2024-02-07T12:51:39.053Z,9.47
2024-02-07T12:54:05.905Z,9.41
2024-02-07T12:56:33.260Z,9.46
2024-02-07T12:59:00.148Z,9.47
2024-02-07T13:01:28.477Z,9.48
2024-02-07T13:03:56.021Z,9.49
2024-02-07T13:06:23.392Z,9.47
2024-02-07T13:08:50.300Z,9.48
2024-02-07T13:11:17.414Z,9.51
2024-02-07T13:13:44.362Z,9.51
2024-02-07T13:16:11.722Z,9.51
2024-02-07T13:18:41.176Z,9.51
2024-02-07T13:21:08.231Z,9.55
2024-02-07T13:23:35.536Z,9.52
2024-02-07T13:26:03.255Z,9.50
2024-02-07T13:28:30.213Z,9.48
2024-02-07T13:30:58.274Z,9.47
2024-02-07T13:33:25.276Z,9.44
2024-02-07T13:35:52.574Z,9.44
2024-02-07T13:38:27.285Z,9.43
2024-02-07T13:41:01.626Z,9.41
2024-02-07T13:43:28.688Z,9.42
2024-02-07T13:45:56.112Z,9.43
2024-02-07T13:48:24.435Z,9.43
2024-02-07T13:50:51.631Z,9.44
2024-02-07T13:53:18.410Z,9.43
2024-02-07T13:55:46.515Z,9.43
2024-02-07T13:58:13.378Z,9.40
2024-02-07T14:00:42.797Z,9.42
2024-02-07T14:03:09.752Z,9.38
2024-02-07T14:05:37.010Z,9.38
2024-02-07T14:08:04.149Z,9.36
2024-02-07T14:10:31.442Z,9.35
2024-02-07T14:12:58.217Z,9.36
2024-02-07T14:15:25.319Z,9.35
2024-02-07T14:17:54.421Z,9.35
2024-02-07T14:20:21.672Z,9.32
2024-02-07T14:22:48.510Z,9.29
2024-02-07T14:25:15.751Z,9.24
2024-02-07T14:27:42.626Z,9.23
2024-02-07T14:30:10.100Z,9.21
2024-02-07T14:32:37.021Z,9.19
2024-02-07T14:35:05.634Z,9.18
2024-02-07T14:37:35.077Z,9.18
2024-02-07T14:40:02.283Z,9.17
2024-02-07T14:42:29.245Z,9.19
2024-02-07T14:44:56.343Z,9.21
2024-02-07T14:47:23.543Z,9.20
2024-02-07T14:49:50.858Z,9.20
2024-02-07T14:52:18.638Z,9.23
2024-02-07T14:54:46.124Z,9.21
2024-02-07T14:57:13.081Z,9.24
2024-02-07T14:59:40.298Z,9.21
2024-02-07T15:02:13.640Z,9.24
2024-02-07T15:04:41.546Z,9.25
2024-02-07T15:07:08.620Z,9.24
2024-02-07T15:09:37.271Z,9.24
2024-02-07T15:12:05.376Z,9.25
2024-02-07T15:14:32.667Z,9.24
2024-02-07T15:17:01.168Z,9.22
2024-02-07T15:19:28.768Z,8.90
2024-02-07T15:21:55.888Z,8.55
2024-02-07T15:24:23.043Z,8.13
2024-02-07T15:26:50.003Z,7.70
2024-02-07T15:29:17.396Z,7.40
2024-02-07T15:31:44.303Z,7.11
2024-02-07T15:34:12.220Z,6.81
2024-02-07T15:36:41.682Z,6.59
2024-02-07T15:39:09.123Z,6.35
2024-02-07T15:41:38.256Z,6.19
2024-02-07T15:44:05.914Z,6.12
2024-02-07T15:46:33.117Z,6.06
2024-02-07T15:49:07.480Z,6.02
2024-02-07T15:51:36.463Z,5.91
2024-02-07T15:54:04.003Z,5.78
2024-02-07T15:56:32.597Z,5.71
2024-02-07T15:59:00.277Z,5.65
2024-02-07T16:01:36.644Z,5.64
2024-02-07T16:04:12.883Z,5.60
2024-02-07T16:06:40.066Z,5.54
2024-02-07T16:09:07.316Z,5.50
2024-02-07T16:11:34.258Z,5.42
2024-02-07T16:14:01.551Z,5.39
2024-02-07T16:16:28.563Z,5.36
2024-02-07T16:18:55.906Z,5.30
2024-02-07T16:21:22.740Z,5.27
2024-02-07T16:23:49.889Z,5.18
2024-02-07T16:26:16.742Z,5.07
2024-02-07T16:28:43.931Z,4.98
2024-02-07T16:31:11.470Z,4.81
2024-02-07T16:33:38.647Z,4.74
2024-02-07T16:36:07.321Z,4.71
2024-02-07T16:38:35.619Z,4.67
2024-02-07T16:41:02.517Z,4.69
2024-02-07T16:43:29.754Z,4.67
2024-02-07T16:45:56.834Z,4.65
2024-02-07T16:48:24.093Z,4.62
2024-02-07T16:50:51.006Z,4.52
2024-02-07T16:53:18.245Z,4.44
2024-02-07T16:55:45.617Z,4.32
2024-02-07T16:58:12.839Z,4.26
2024-02-07T17:00:39.747Z,4.18
2024-02-07T17:03:07.916Z,4.10
2024-02-07T17:05:34.950Z,4.06
2024-02-07T17:08:04.823Z,3.99
2024-02-07T17:10:31.879Z,3.97
2024-02-07T17:12:59.190Z,3.96
2024-02-07T17:15:26.132Z,3.89
2024-02-07T17:17:53.292Z,3.87
2024-02-07T17:20:20.543Z,3.84
2024-02-07T17:22:50.135Z,3.82
2024-02-07T17:25:17.174Z,3.83
2024-02-07T17:27:44.583Z,3.81
2024-02-07T17:30:18.136Z,3.79
2024-02-07T17:32:52.203Z,3.75
2024-02-07T17:35:19.916Z,3.71
2024-02-07T17:37:47.920Z,3.65
2024-02-07T17:40:16.008Z,3.57
2024-02-07T17:42:43.245Z,3.53
2024-02-07T17:45:10.760Z,3.47
2024-02-07T17:47:37.962Z,3.38
2024-02-07T17:50:07.431Z,3.25
2024-02-07T17:52:34.781Z,3.18
2024-02-07T17:55:01.901Z,3.14
2024-02-07T17:57:29.488Z,3.08
2024-02-07T17:59:56.410Z,3.01
2024-02-07T18:02:24.944Z,2.91
2024-02-07T18:04:52.190Z,2.80
2024-02-07T18:07:19.586Z,2.71
2024-02-07T18:09:46.598Z,2.62
2024-02-07T18:12:13.856Z,2.56
2024-02-07T18:14:43.383Z,2.49
2024-02-07T18:17:10.630Z,2.42
2024-02-07T18:19:43.290Z,2.34
2024-02-07T18:22:11.242Z,2.23
2024-02-07T18:24:38.523Z,2.17
2024-02-07T18:27:06.226Z,2.11
2024-02-07T18:29:33.336Z,2.04
2024-02-07T18:32:02.112Z,1.93
2024-02-07T18:34:29.418Z,1.85
2024-02-07T18:36:56.744Z,1.75
2024-02-07T18:39:23.642Z,1.65
2024-02-07T18:41:53.093Z,1.56
2024-02-07T18:44:20.543Z,1.49
2024-02-07T18:46:51.001Z,1.44
2024-02-07T18:49:18.233Z,1.36
2024-02-07T18:51:45.611Z,1.30
2024-02-07T18:54:12.394Z,1.25
2024-02-07T18:56:39.512Z,1.22
2024-02-07T18:59:07.446Z,1.22
2024-02-07T19:01:37.159Z,1.21
2024-02-07T19:04:04.278Z,1.23
2024-02-07T19:06:31.592Z,1.22
2024-02-07T19:08:59.785Z,1.20
2024-02-07T19:11:26.987Z,1.17
2024-02-07T19:13:55.363Z,1.16
2024-02-07T19:16:24.935Z,1.16
2024-02-07T19:18:52.021Z,1.17
2024-02-07T19:21:21.137Z,1.18
2024-02-07T19:23:50.260Z,1.22
2024-02-07T19:26:17.364Z,1.24
2024-02-07T19:28:44.275Z,1.27
2024-02-07T19:31:12.087Z,1.30
2024-02-07T19:33:40.128Z,1.33
2024-02-07T19:36:07.637Z,1.37
2024-02-07T19:38:34.520Z,1.39
2024-02-07T19:41:01.726Z,1.40
2024-02-07T19:43:29.681Z,1.41
2024-02-07T19:45:57.146Z,1.43
2024-02-07T19:48:24.381Z,1.42
2024-02-07T19:50:51.583Z,1.41
2024-02-07T19:53:18.749Z,1.42
2024-02-07T19:55:46.096Z,1.43
2024-02-07T19:58:15.670Z,1.46
2024-02-07T20:00:43.246Z,1.46
2024-02-07T20:04:44.407Z,1.45
2024-02-07T20:10:54.356Z,1.42
2024-02-07T20:13:21.299Z,1.42
2024-02-07T20:15:48.468Z,1.42
2024-02-07T20:18:15.432Z,1.40
2024-02-07T20:20:42.734Z,1.42
2024-02-07T20:23:20.379Z,1.43
2024-02-07T20:26:03.747Z,1.43
2024-02-07T20:28:32.959Z,1.41
2024-02-07T20:31:00.258Z,1.40
2024-02-07T20:33:27.162Z,1.38
2024-02-07T20:35:54.327Z,1.34
2024-02-07T20:38:21.319Z,1.30
2024-02-07T20:40:48.539Z,1.27
2024-02-07T20:43:15.599Z,1.24
2024-02-07T20:45:43.949Z,1.19
2024-02-07T20:48:11.017Z,1.21
2024-02-07T20:50:38.377Z,1.23
2024-02-07T20:53:09.095Z,1.24
2024-02-07T20:55:36.534Z,1.24
2024-02-07T20:58:03.683Z,1.24
2024-02-07T21:00:33.413Z,1.26
2024-02-07T21:03:04.029Z,1.26
2024-02-07T21:05:37.117Z,1.24
2024-02-07T21:08:06.805Z,1.23
2024-02-07T21:10:35.011Z,1.20
2024-02-07T21:13:02.051Z,1.17
2024-02-07T21:15:29.168Z,1.16
2024-02-07T21:17:55.992Z,1.15
2024-02-07T21:20:23.270Z,1.12
2024-02-07T21:22:51.806Z,1.09
2024-02-07T21:25:21.342Z,1.05
2024-02-07T21:27:48.280Z,1.01
2024-02-07T21:30:15.691Z,1.00
2024-02-07T21:32:42.705Z,0.98
2024-02-07T21:35:10.517Z,0.97
2024-02-07T21:37:37.596Z,0.93
2024-02-07T21:40:12.160Z,0.93
2024-02-07T21:42:40.675Z,0.93
2024-02-07T21:45:19.374Z,0.92
2024-02-07T21:51:18.134Z,0.92
2024-02-07T21:53:46.624Z,0.91
2024-02-07T21:56:13.547Z,0.90
2024-02-07T21:58:40.798Z,0.87
2024-02-07T22:01:07.712Z,0.86
2024-02-07T22:03:37.173Z,0.83
2024-02-07T22:06:05.055Z,0.87
2024-02-07T22:08:32.663Z,0.86
2024-02-07T22:11:01.823Z,0.86
2024-02-07T22:13:54.287Z,0.82
2024-02-07T22:16:24.532Z,0.82
2024-02-07T22:18:51.596Z,0.80
2024-02-07T22:21:18.870Z,0.79
2024-02-07T22:23:45.721Z,0.76
2024-02-07T22:26:12.961Z,0.72
2024-02-07T22:28:39.907Z,0.72
2024-02-07T22:31:07.355Z,0.73
2024-02-07T22:33:34.385Z,0.73
2024-02-07T22:36:01.925Z,0.74
2024-02-07T22:38:34.303Z,0.74
2024-02-07T22:41:01.657Z,0.74
2024-02-07T22:43:33.762Z,0.75
2024-02-07T22:46:23.036Z,0.78
2024-02-07T22:48:52.116Z,0.79
2024-02-07T22:51:19.289Z,0.80
2024-02-07T22:53:46.639Z,0.82
2024-02-07T22:56:13.583Z,0.83
2024-02-07T22:58:40.948Z,0.81
2024-02-07T23:01:07.809Z,0.80
2024-02-07T23:03:38.369Z,0.78
2024-02-07T23:06:06.116Z,0.78
2024-02-07T23:08:33.513Z,0.78
2024-02-07T23:11:00.520Z,0.77
2024-02-07T23:13:27.883Z,0.77
2024-02-07T23:15:55.554Z,0.79
2024-02-07T23:18:25.413Z,0.80
2024-02-07T23:20:52.350Z,0.77
2024-02-07T23:23:19.485Z,0.78
2024-02-07T23:25:49.440Z,0.79
2024-02-07T23:28:16.689Z,0.81
2024-02-07T23:30:43.528Z,0.81
2024-02-07T23:33:12.475Z,0.84
2024-02-07T23:35:39.405Z,0.85
2024-02-07T23:38:06.654Z,0.90
2024-02-07T23:40:33.575Z,0.90
2024-02-07T23:43:03.604Z,0.87
2024-02-07T23:45:30.516Z,0.85
2024-02-07T23:47:58.606Z,0.85
2024-02-07T23:50:25.489Z,0.83
2024-02-07T23:52:52.534Z,0.82
2024-02-07T23:55:19.613Z,0.85
2024-02-07T23:57:46.727Z,0.89
